Time;durP1;ratioP1;P1;durP2;ratioP2;P2;SDS_P1;SDS_P2;PMS_P1;PMS_P2;Temp;Humidity;BMP_temperature;BMP_pressure;BME280_temperature;BME280_humidity;BME280_pressure;Samples;Min_cycle;Max_cycle;Signal;HPM_P1;HPM_P2
2022/01/16 00:00:54;;;;;;;15.30;12.57;;;;;;;18.70;39.39;101965.31;5013983;28;20451;-75
2022/01/16 00:06:13;;;;;;;14.60;12.27;;;;;;;18.72;39.46;101965.22;5014270;28;20401;-75
2022/01/16 00:08:40;;;;;;;17.77;11.63;;;;;;;18.73;39.37;101961.59;5013683;28;20367;-75
2022/01/16 00:11:08;;;;;;;16.30;12.05;;;;;;;18.73;39.23;101953.53;5013816;28;20046;-75
2022/01/16 00:13:35;;;;;;;16.58;12.20;;;;;;;18.73;39.19;101934.75;5014298;28;20048;-75
2022/01/16 00:16:02;;;;;;;16.92;13.05;;;;;;;18.73;39.24;101934.75;5013920;28;20491;-75
2022/01/16 00:18:41;;;;;;;15.07;11.82;;;;;;;18.73;39.09;101943.66;5012179;28;20057;-75
2022/01/16 00:21:08;;;;;;;15.10;12.32;;;;;;;18.73;38.93;101942.81;5014238;28;20060;-75
2022/01/16 00:23:35;;;;;;;13.38;12.00;;;;;;;18.73;39.00;101967.81;5012412;28;20391;-75
2022/01/16 00:26:03;;;;;;;14.25;12.75;;;;;;;18.73;38.95;101957.06;5013580;28;20053;-75
2022/01/16 00:28:30;;;;;;;15.10;11.35;;;;;;;18.74;38.89;101937.31;5013781;28;20509;-75
2022/01/16 00:30:57;;;;;;;16.55;12.30;;;;;;;18.73;39.01;101940.13;5013496;28;20046;-75
2022/01/16 00:33:25;;;;;;;14.80;11.90;;;;;;;18.74;38.91;101966.84;5026141;28;20049;-75
2022/01/16 00:35:52;;;;;;;14.60;12.23;;;;;;;18.74;38.90;101953.41;5032999;28;20045;-75
2022/01/16 00:38:19;;;;;;;14.52;11.85;;;;;;;18.74;38.71;101958.78;5033307;28;20401;-76
2022/01/16 00:40:47;;;;;;;13.65;11.57;;;;;;;18.75;38.85;101970.38;5033044;28;20405;-75
2022/01/16 00:43:14;;;;;;;13.40;11.65;;;;;;;18.75;38.67;101970.38;5033430;28;20050;-75
2022/01/16 00:45:42;;;;;;;12.98;11.43;;;;;;;18.75;38.68;101971.22;5032397;28;20053;-75
2022/01/16 00:48:09;;;;;;;14.93;11.93;;;;;;;18.75;38.61;101987.31;5032846;28;20053;-75
2022/01/16 00:50:36;;;;;;;15.43;11.85;;;;;;;18.75;38.85;101978.44;5033015;28;20072;-75
2022/01/16 00:53:03;;;;;;;15.00;11.52;;;;;;;18.75;38.74;101991.84;5033320;28;20056;-75
2022/01/16 00:55:32;;;;;;;14.38;11.65;;;;;;;18.75;39.00;101965.88;5032821;28;20053;-75
2022/01/16 00:58:00;;;;;;;14.98;11.70;;;;;;;18.75;38.71;101914.91;5032727;28;20045;-75
2022/01/16 01:00:32;;;;;;;13.15;10.93;;;;;;;18.75;39.03;101906.84;5032939;28;20086;-75
2022/01/16 01:03:00;;;;;;;13.13;11.68;;;;;;;18.75;38.95;101874.66;5033025;28;20045;-75
2022/01/16 01:05:28;;;;;;;13.55;11.88;;;;;;;18.76;38.93;101888.97;5032726;28;20049;-75
2022/01/16 01:07:55;;;;;;;14.40;10.95;;;;;;;18.75;38.82;101873.81;5033035;28;20050;-76
2022/01/16 01:10:34;;;;;;;16.55;11.85;;;;;;;18.76;38.89;101911.28;5032856;28;20049;-75
2022/01/16 01:13:12;;;;;;;14.07;11.45;;;;;;;18.76;38.91;101935.41;5033136;28;20052;-75
2022/01/16 01:15:49;;;;;;;13.70;11.77;;;;;;;18.76;38.93;101937.25;5033331;28;20056;-75
2022/01/16 01:18:18;;;;;;;13.15;11.80;;;;;;;18.76;38.78;101954.19;5032560;28;20060;-75
2022/01/16 01:20:48;;;;;;;12.90;10.98;;;;;;;18.75;38.88;101947.09;5032650;28;20049;-75
2022/01/16 01:23:16;;;;;;;11.88;10.63;;;;;;;18.77;38.92;101957.75;5032918;28;20045;-75
2022/01/16 01:25:43;;;;;;;13.88;11.60;;;;;;;18.75;38.69;101955.13;5029441;28;20064;-75
2022/01/16 01:28:12;;;;;;;12.77;11.00;;;;;;;18.75;38.67;101981.09;5011750;28;20405;-75
2022/01/16 01:30:41;;;;;;;14.52;10.80;;;;;;;18.77;38.73;101976.50;5012925;28;20046;-75
2022/01/16 01:33:13;;;;;;;14.05;11.10;;;;;;;18.75;38.82;101984.66;5015504;28;20049;-75
2022/01/16 01:35:41;;;;;;;14.32;12.02;;;;;;;18.76;38.83;101999.81;5029522;28;20042;-75
2022/01/16 01:38:11;;;;;;;14.98;10.15;;;;;;;18.76;38.69;101996.25;5032367;28;20052;-75
2022/01/16 01:40:40;;;;;;;13.32;10.55;;;;;;;18.77;38.64;101995.28;5033102;28;20046;-75
2022/01/16 01:51:21;;;;;;;12.90;10.35;;;;;;;18.75;38.73;102011.47;5032672;28;20050;-75
2022/01/16 01:53:54;;;;;;;12.50;10.45;;;;;;;18.75;38.50;102014.16;5032257;28;20049;-75
2022/01/16 01:56:23;;;;;;;;;;;;;;;18.76;38.40;102023.09;5031339;28;20057;-75
2022/01/16 01:58:51;;;;;;;12.95;10.25;;;;;;;18.74;38.43;102028.53;5032878;28;19921;-75
2022/01/16 02:01:20;;;;;;;12.98;11.38;;;;;;;18.76;38.60;102029.31;5032712;28;20046;-75
2022/01/16 02:03:49;;;;;;;15.82;11.15;;;;;;;18.74;38.51;102017.81;5032014;28;20053;-75
2022/01/16 02:06:18;;;;;;;12.73;10.50;;;;;;;18.75;38.46;102000.75;5032104;28;20049;-75
2022/01/16 02:09:00;;;;;;;12.10;10.27;;;;;;;18.75;38.36;101995.38;5032475;28;20516;-75
2022/01/16 02:11:31;;;;;;;12.10;10.68;;;;;;;18.75;38.08;101997.19;5034033;28;20049;-75
2022/01/16 02:14:13;;;;;;;11.50;10.27;;;;;;;18.75;38.39;101989.16;5036306;28;20050;-75
2022/01/16 02:36:17;;;;;;;13.93;9.95;;;;;;;18.73;38.23;102000.00;4992639;28;20038;-75
2022/01/16 02:38:46;;;;;;;10.88;9.73;;;;;;;18.73;38.26;102001.81;5013585;28;20053;-75
2022/01/16 02:41:13;;;;;;;10.90;9.43;;;;;;;18.72;38.21;101986.69;5013454;28;20056;-75
2022/01/16 02:43:46;;;;;;;12.45;10.45;;;;;;;18.71;38.22;101993.84;5013869;28;20070;-75
2022/01/16 02:48:48;;;;;;;9.95;8.95;;;;;;;18.73;38.43;101970.50;5013236;28;20058;-75
2022/01/16 02:51:18;;;;;;;11.23;9.63;;;;;;;18.72;38.21;101962.56;5013460;28;20514;-75
2022/01/16 02:53:49;;;;;;;10.48;9.38;;;;;;;18.74;38.35;101960.63;5013291;28;20053;-75
2022/01/16 02:56:18;;;;;;;10.38;8.85;;;;;;;18.72;38.24;101943.78;4997501;28;20073;-75
2022/01/16 02:58:47;;;;;;;11.93;9.82;;;;;;;18.72;38.17;101927.69;5013150;28;20064;-75
2022/01/16 03:01:14;;;;;;;12.38;8.95;;;;;;;18.72;38.29;101936.59;5013406;28;20064;-75
2022/01/16 03:03:43;;;;;;;11.73;10.40;;;;;;;18.71;38.32;101932.16;4997199;28;20050;-75
2022/01/16 03:06:10;;;;;;;11.45;8.80;;;;;;;18.70;38.40;101938.50;4996862;28;20057;-75
2022/01/16 03:08:38;;;;;;;10.85;9.65;;;;;;;18.71;38.21;101940.19;5027508;28;20061;-75
2022/01/16 03:13:33;;;;;;;10.60;8.98;;;;;;;18.73;37.97;101942.81;5034680;28;20046;-75
2022/01/16 03:16:00;;;;;;;10.32;8.80;;;;;;;18.74;38.03;101939.16;5034705;28;20052;-75
2022/01/16 03:24:00;;;;;;;10.25;8.95;;;;;;;18.73;37.80;101951.72;5034687;28;20048;-75
2022/01/16 03:26:27;;;;;;;11.40;9.55;;;;;;;18.72;37.77;101966.09;5025237;28;20406;-75
2022/01/16 03:28:54;;;;;;;10.95;9.00;;;;;;;18.73;37.74;101959.75;5014978;28;20153;-75
2022/01/16 03:31:22;;;;;;;11.68;8.32;;;;;;;18.74;37.63;101971.34;5014536;28;20485;-75
2022/01/16 03:33:49;;;;;;;11.05;9.77;;;;;;;18.73;37.68;101970.50;5014483;28;20072;-75
2022/01/16 03:36:16;;;;;;;9.85;8.82;;;;;;;18.73;37.58;101970.50;5024770;28;20052;-75
2022/01/16 03:38:44;;;;;;;8.85;7.72;;;;;;;18.72;37.67;101968.78;5033127;28;20490;-75
2022/01/16 03:41:11;;;;;;;11.48;8.48;;;;;;;18.74;37.59;101972.19;5034181;28;20050;-76
2022/01/16 03:43:38;;;;;;;10.30;8.77;;;;;;;18.74;37.55;101982.94;5034120;28;20045;-75
2022/01/16 03:46:06;;;;;;;11.65;8.35;;;;;;;18.74;37.49;101979.38;5034213;28;20048;-75
2022/01/16 03:48:33;;;;;;;9.32;8.30;;;;;;;18.73;37.47;101965.13;5032861;28;20056;-75
2022/01/16 03:51:01;;;;;;;10.00;8.65;;;;;;;18.73;37.63;101970.50;5034002;28;20053;-75
2022/01/16 03:53:28;;;;;;;10.95;8.77;;;;;;;18.73;37.46;101972.31;5034434;28;20048;-75
2022/01/16 03:55:55;;;;;;;11.90;8.57;;;;;;;18.72;37.29;101970.59;5033989;28;20057;-75
2022/01/16 03:58:23;;;;;;;9.48;8.07;;;;;;;18.73;37.37;101969.63;5034431;28;20508;-75
2022/01/16 04:00:50;;;;;;;10.57;7.75;;;;;;;18.73;37.32;101970.50;5033709;28;20489;-75
2022/01/16 04:03:18;;;;;;;9.95;8.35;;;;;;;18.71;37.38;101972.41;5033849;28;20061;-75
2022/01/16 04:05:45;;;;;;;8.93;7.88;;;;;;;18.73;37.33;101973.16;5033720;28;20046;-75
2022/01/16 04:08:12;;;;;;;9.50;8.50;;;;;;;18.71;37.39;101964.34;5034005;28;20045;-76
2022/01/16 04:10:39;;;;;;;10.27;7.97;;;;;;;18.72;37.24;101957.19;5033652;28;20037;-75
2022/01/16 04:13:08;;;;;;;8.98;8.07;;;;;;;18.73;37.25;101959.75;5033698;28;20052;-75
2022/01/16 04:15:35;;;;;;;9.23;7.97;;;;;;;18.72;37.21;101951.81;5032796;28;20064;-75
2022/01/16 04:18:05;;;;;;;9.65;7.75;;;;;;;18.71;37.23;101953.63;5033221;28;20405;-75
2022/01/16 04:20:33;;;;;;;8.57;7.45;;;;;;;18.71;37.00;101942.88;5032544;28;20045;-75
2022/01/16 04:23:01;;;;;;;9.32;8.23;;;;;;;18.72;37.12;101941.09;5033993;28;20053;-75
2022/01/16 04:25:29;;;;;;;9.73;7.80;;;;;;;18.71;37.05;101942.88;5021172;28;20041;-75
2022/01/16 04:27:56;;;;;;;8.25;7.07;;;;;;;18.72;36.93;101951.81;5012639;28;20050;-75
2022/01/16 04:30:24;;;;;;;9.75;8.57;;;;;;;18.71;36.95;101953.63;5013580;28;20044;-75
2022/01/16 04:32:51;;;;;;;9.48;8.50;;;;;;;18.72;36.89;101943.78;5012394;28;20426;-75
2022/01/16 04:35:19;;;;;;;9.27;8.38;;;;;;;18.71;37.00;101942.03;5011433;28;20406;-75
2022/01/16 04:37:47;;;;;;;9.13;7.90;;;;;;;18.71;37.03;101942.88;5028833;28;20053;-75
2022/01/16 04:40:40;;;;;;;8.77;7.88;;;;;;;18.72;36.86;101935.72;5033140;28;20044;-75
2022/01/16 04:46:05;;;;;;;9.35;8.38;;;;;;;18.70;36.93;101925.06;5033177;28;20057;-75
2022/01/16 04:48:33;;;;;;;9.00;7.63;;;;;;;18.71;36.81;101921.44;5032606;28;20053;-75
2022/01/16 04:51:00;;;;;;;9.25;7.75;;;;;;;18.71;36.72;101920.56;5033462;28;20375;-75
2022/01/16 04:53:28;;;;;;;8.38;7.55;;;;;;;18.71;36.82;101918.75;5033051;28;20512;-75
2022/01/16 04:55:55;;;;;;;8.95;7.72;;;;;;;18.71;36.93;101917.88;5031956;28;20049;-75
2022/01/16 04:58:23;;;;;;;8.73;7.75;;;;;;;18.71;36.87;101917.88;5033227;28;20045;-75
2022/01/16 05:00:54;;;;;;;8.55;7.65;;;;;;;18.71;36.78;101907.16;5032881;28;20041;-75
2022/01/16 05:03:24;;;;;;;7.88;7.07;;;;;;;18.71;36.88;101896.44;5032754;28;20049;-75
2022/01/16 05:05:51;;;;;;;8.13;7.30;;;;;;;18.70;36.80;101895.56;5033109;28;20092;-75
2022/01/16 05:08:19;;;;;;;8.85;7.20;;;;;;;18.70;36.89;101892.03;5032686;28;20049;-75
2022/01/16 05:10:46;;;;;;;8.52;7.60;;;;;;;18.69;36.89;101882.25;5031425;28;20060;-75
2022/01/16 05:18:40;;;;;;;9.45;7.28;;;;;;;18.69;36.97;101893.81;5032756;28;20054;-75
2022/01/16 05:21:08;;;;;;;8.18;7.03;;;;;;;18.70;37.08;101886.66;5032608;28;20037;-75
2022/01/16 05:23:35;;;;;;;7.40;6.63;;;;;;;18.68;36.98;101886.75;5032570;28;20073;-75
2022/01/16 05:26:04;;;;;;;8.40;6.97;;;;;;;18.68;37.07;101894.81;5027123;28;20042;-75
2022/01/16 05:28:31;;;;;;;8.73;7.75;;;;;;;18.69;37.00;101901.03;5012704;28;20046;-75
2022/01/16 05:30:59;;;;;;;8.98;7.45;;;;;;;18.67;37.07;101903.78;5012617;28;20050;-75
2022/01/16 05:33:27;;;;;;;8.55;7.18;;;;;;;18.67;37.18;101902.94;5013268;28;20050;-75
2022/01/16 05:35:54;;;;;;;9.50;6.97;;;;;;;18.67;37.11;101901.09;5012520;28;20053;-75
2022/01/16 05:38:21;;;;;;;7.75;6.95;;;;;;;18.66;36.96;101904.75;5024743;28;20045;-75
2022/01/16 05:40:49;;;;;;;8.18;6.53;;;;;;;18.66;37.05;101893.16;5032175;28;20049;-76
2022/01/16 05:43:16;;;;;;;8.18;7.13;;;;;;;18.65;37.12;101897.69;5032347;28;20185;-77
2022/01/16 05:45:44;;;;;;;8.73;6.90;;;;;;;18.65;37.05;101899.50;5035032;28;20052;-75
2022/01/16 05:48:11;;;;;;;9.65;7.03;;;;;;;18.64;37.13;101913.88;5036813;28;20480;-75
2022/01/16 05:50:39;;;;;;;8.88;6.55;;;;;;;18.63;37.37;101912.13;5036114;28;20052;-75
2022/01/16 05:53:06;;;;;;;7.63;6.82;;;;;;;18.63;37.35;101920.19;5035143;28;20481;-75
2022/01/16 05:55:36;;;;;;;7.57;6.60;;;;;;;18.62;37.23;101911.28;5036080;28;20057;-75
2022/01/16 05:58:05;;;;;;;7.05;6.30;;;;;;;18.63;37.12;101914.81;5036706;28;20046;-75
2022/01/16 06:00:35;;;;;;;7.97;6.25;;;;;;;18.64;37.22;101921.94;5036357;28;20053;-75
2022/01/16 06:03:03;;;;;;;7.20;6.45;;;;;;;18.63;37.02;101909.44;5036142;28;20511;-75
2022/01/16 06:05:32;;;;;;;7.65;6.78;;;;;;;18.63;37.02;101918.34;5036505;28;20048;-75
2022/01/16 06:08:06;;;;;;;9.32;6.70;;;;;;;18.63;37.10;101928.22;5036054;28;20100;-75
2022/01/16 06:10:33;;;;;;;7.22;6.47;;;;;;;18.62;37.23;101919.31;5035817;28;20049;-75
2022/01/16 06:13:05;;;;;;;7.75;6.95;;;;;;;18.63;36.91;101929.09;5036513;28;20116;-75
2022/01/16 06:15:33;;;;;;;7.72;6.90;;;;;;;18.63;36.96;101921.03;5036024;28;20049;-74
2022/01/16 06:18:00;;;;;;;7.15;6.10;;;;;;;18.63;36.80;101920.19;5034515;28;20068;-75
2022/01/16 06:20:28;;;;;;;7.15;6.28;;;;;;;18.63;36.74;101925.53;5035988;28;20056;-75
2022/01/16 06:22:55;;;;;;;8.05;6.25;;;;;;;18.61;36.86;101931.03;5035918;28;20049;-75
2022/01/16 06:25:24;;;;;;;8.15;6.63;;;;;;;18.60;36.86;101921.25;5028088;28;20058;-75
2022/01/16 06:27:52;;;;;;;7.43;6.15;;;;;;;18.60;36.78;101923.09;5016221;28;20049;-74
2022/01/16 06:30:21;;;;;;;8.65;6.53;;;;;;;18.59;36.63;101922.19;5015692;28;20050;-75
2022/01/16 06:32:48;;;;;;;6.65;5.82;;;;;;;18.59;37.13;101924.88;5015620;28;20056;-75
2022/01/16 06:35:15;;;;;;;6.55;5.57;;;;;;;18.59;37.33;101921.34;5016501;28;20046;-75
2022/01/16 06:37:44;;;;;;;8.45;6.72;;;;;;;18.59;37.16;101929.38;5015719;28;20391;-75
2022/01/16 06:40:12;;;;;;;7.15;6.15;;;;;;;18.58;37.15;101936.59;5033584;28;20037;-75
2022/01/16 06:42:41;;;;;;;7.75;6.22;;;;;;;18.58;37.25;101938.41;5035605;28;20045;-75
2022/01/16 06:45:10;;;;;;;8.60;5.80;;;;;;;18.58;37.34;101939.25;5035257;28;20056;-75
2022/01/16 06:47:38;;;;;;;6.68;5.88;;;;;;;18.57;37.20;101942.06;5035344;28;20050;-75
2022/01/16 06:50:07;;;;;;;7.25;5.85;;;;;;;18.57;37.36;101940.22;5035630;28;20049;-75
2022/01/16 06:52:35;;;;;;;6.88;6.18;;;;;;;18.56;37.15;101941.19;5033961;28;20060;-75
2022/01/16 06:55:03;;;;;;;6.50;5.75;;;;;;;18.55;37.22;101936.78;5035003;28;20046;-75
2022/01/16 06:57:31;;;;;;;6.65;5.90;;;;;;;18.55;37.17;101944.81;5034654;28;20064;-75
2022/01/16 06:59:58;;;;;;;7.65;5.93;;;;;;;18.54;37.23;101943.09;5034130;28;20468;-75
2022/01/16 07:02:27;;;;;;;8.15;6.20;;;;;;;18.53;37.15;101946.75;5035554;28;20370;-75
2022/01/16 07:04:54;;;;;;;6.18;5.57;;;;;;;18.53;37.29;101952.13;5034858;28;20053;-75
2022/01/16 07:07:21;;;;;;;6.25;5.65;;;;;;;18.53;37.36;101949.44;5035187;28;20045;-75
2022/01/16 07:09:49;;;;;;;7.88;6.03;;;;;;;18.53;37.26;101960.16;5032859;28;20057;-75
2022/01/16 07:12:16;;;;;;;6.93;6.03;;;;;;;18.53;37.12;101968.22;5035205;28;20037;-75
2022/01/16 07:14:44;;;;;;;7.60;6.43;;;;;;;18.52;37.12;101972.72;5034023;28;20060;-75
2022/01/16 07:17:12;;;;;;;7.00;6.30;;;;;;;18.51;37.08;101973.69;5034005;28;20128;-75
2022/01/16 07:19:39;;;;;;;7.72;6.07;;;;;;;18.51;36.87;101962.06;5034668;28;20053;-75
2022/01/16 07:22:06;;;;;;;7.30;5.70;;;;;;;18.51;36.96;101964.75;5034624;28;20041;-75
2022/01/16 07:24:34;;;;;;;7.47;6.28;;;;;;;18.51;37.01;101964.75;5034447;28;20052;-75
2022/01/16 07:27:01;;;;;;;6.65;5.95;;;;;;;18.50;36.92;101973.75;5019713;28;20046;-75
2022/01/16 07:29:29;;;;;;;6.15;5.55;;;;;;;18.50;36.90;101966.56;5014717;28;20065;-75
2022/01/16 07:31:57;;;;;;;6.97;5.93;;;;;;;18.50;36.88;101968.41;5014769;28;20046;-75
2022/01/16 07:34:25;;;;;;;6.75;5.68;;;;;;;18.50;36.91;101979.13;5014691;28;20659;-75
2022/01/16 07:36:52;;;;;;;7.55;5.55;;;;;;;18.50;37.04;101984.50;5014335;28;20495;-75
2022/01/16 07:39:19;;;;;;;7.28;6.13;;;;;;;18.49;36.79;101978.25;5018989;28;20041;-75
2022/01/16 07:41:47;;;;;;;7.32;6.55;;;;;;;18.49;37.11;101988.13;5033432;28;20045;-75
2022/01/16 07:44:20;;;;;;;7.22;5.75;;;;;;;18.48;36.76;101997.16;5032802;28;20057;-75
2022/01/16 07:46:49;;;;;;;6.60;5.72;;;;;;;18.48;36.89;101992.66;5034574;28;20045;-75
2022/01/16 07:49:16;;;;;;;6.93;5.88;;;;;;;18.48;36.94;101999.81;5034275;28;20057;-75
2022/01/16 07:51:43;;;;;;;6.53;5.88;;;;;;;18.47;37.00;101990.94;5033711;28;20045;-75
2022/01/16 07:54:11;;;;;;;6.30;5.45;;;;;;;18.47;36.98;101990.03;5034441;28;20420;-75
2022/01/16 07:56:38;;;;;;;7.07;5.88;;;;;;;18.47;36.96;101976.63;5033821;28;20053;-75
2022/01/16 07:59:05;;;;;;;6.88;5.95;;;;;;;18.47;36.94;101976.63;5034022;28;20072;-75
2022/01/16 08:01:33;;;;;;;6.22;5.63;;;;;;;18.47;36.86;101965.91;5033897;28;20485;-75
2022/01/16 08:04:00;;;;;;;6.93;5.88;;;;;;;18.45;36.85;101974.06;5033734;28;20489;-75
2022/01/16 08:06:31;;;;;;;5.90;5.30;;;;;;;18.46;36.93;101974.91;5032808;28;20493;-75
2022/01/16 08:08:58;;;;;;;6.45;5.82;;;;;;;18.45;36.92;101976.75;5032682;28;20072;-75
2022/01/16 08:11:26;;;;;;;6.13;5.53;;;;;;;18.45;36.77;101970.53;5033828;28;20052;-75
2022/01/16 08:13:53;;;;;;;6.47;5.65;;;;;;;18.45;36.92;101973.19;5034006;28;20042;-75
2022/01/16 08:16:21;;;;;;;8.77;5.63;;;;;;;18.45;37.33;101970.53;5032626;28;20133;-75
2022/01/16 08:18:48;;;;;;;6.82;5.70;;;;;;;18.45;36.87;101986.59;5013990;28;20050;-75
2022/01/16 08:21:17;;;;;;;6.97;6.28;;;;;;;18.44;36.78;101993.78;5013812;28;20046;-75
2022/01/16 08:23:44;;;;;;;5.57;5.03;;;;;;;18.45;36.96;101990.16;5013955;28;20048;-75
2022/01/16 08:26:11;;;;;;;6.53;5.55;;;;;;;18.44;36.96;101985.75;5006462;28;20049;-75
2022/01/16 08:28:38;;;;;;;6.88;5.32;;;;;;;18.44;36.86;101987.56;4993958;28;20054;-75
2022/01/16 08:31:06;;;;;;;6.57;5.20;;;;;;;18.44;36.84;101990.25;4994455;28;20491;-75
2022/01/16 08:33:33;;;;;;;6.35;5.57;;;;;;;18.43;36.87;101994.75;4993795;28;20051;-75
2022/01/16 08:36:01;;;;;;;6.05;5.45;;;;;;;18.43;36.86;101999.22;4992608;28;20057;-74
2022/01/16 08:38:30;;;;;;;5.57;4.80;;;;;;;18.42;36.92;101995.69;4994442;28;20046;-74
2022/01/16 08:40:59;;;;;;;6.07;5.38;;;;;;;18.42;37.02;101994.84;5002797;28;20485;-75
2022/01/16 08:43:29;;;;;;;5.70;4.40;;;;;;;18.42;36.78;101992.16;5011757;28;20386;-75
2022/01/16 08:45:56;;;;;;;6.15;4.97;;;;;;;18.41;36.86;101993.13;5013463;28;20057;-75
2022/01/16 08:48:24;;;;;;;7.53;5.68;;;;;;;18.40;36.92;101989.59;5013718;28;20409;-75
2022/01/16 08:50:51;;;;;;;7.43;5.90;;;;;;;18.40;36.77;101988.72;5013234;28;20494;-75
2022/01/16 08:53:19;;;;;;;6.30;5.40;;;;;;;18.41;36.76;102002.03;5013142;28;20084;-75
2022/01/16 08:55:46;;;;;;;7.22;5.88;;;;;;;18.39;36.83;101998.59;5013554;28;20050;-75
2022/01/16 08:58:13;;;;;;;5.63;4.80;;;;;;;18.40;36.81;101999.47;5013143;28;20486;-75
2022/01/16 09:00:43;;;;;;;6.38;5.60;;;;;;;18.40;36.75;101999.47;5013059;28;20049;-75
2022/01/16 09:03:11;;;;;;;6.22;5.00;;;;;;;18.40;36.79;101994.09;5013970;28;20049;-75
2022/01/16 09:05:39;;;;;;;6.32;5.53;;;;;;;18.41;36.99;101996.66;5012897;28;20045;-75
2022/01/16 09:08:06;;;;;;;8.13;5.75;;;;;;;18.41;36.95;101988.63;5013139;28;20049;-75
2022/01/16 09:10:34;;;;;;;8.50;5.70;;;;;;;18.41;37.12;101985.94;5013080;28;20494;-75
2022/01/16 09:13:03;;;;;;;6.15;5.05;;;;;;;18.41;37.23;101990.44;5013228;28;20061;-75
2022/01/16 09:15:30;;;;;;;7.43;6.25;;;;;;;18.42;37.26;101994.84;5013184;28;20046;-75
2022/01/16 09:17:58;;;;;;;7.60;5.40;;;;;;;18.42;37.27;102000.19;5025760;28;20497;-75
2022/01/16 09:20:25;;;;;;;7.20;5.35;;;;;;;18.41;37.43;101988.63;5032392;28;20045;-75
2022/01/16 09:22:52;;;;;;;5.85;5.13;;;;;;;18.42;37.45;101986.78;5032877;28;20105;-75
2022/01/16 09:25:22;;;;;;;8.10;5.32;;;;;;;18.41;37.79;101995.81;5032869;28;20056;-76
2022/01/16 09:27:50;;;;;;;7.38;5.65;;;;;;;18.40;37.73;101997.63;5011703;28;20072;-76
2022/01/16 09:30:19;;;;;;;7.57;5.70;;;;;;;18.40;37.66;101989.59;5012886;28;20505;-75
2022/01/16 09:32:46;;;;;;;5.90;5.28;;;;;;;18.42;37.88;101992.16;5012821;28;20045;-75
2022/01/16 09:35:15;;;;;;;7.38;5.20;;;;;;;18.41;37.82;101996.66;5013273;28;20493;-75
2022/01/16 09:37:43;;;;;;;7.78;5.15;;;;;;;18.41;37.96;101999.34;5012701;28;20060;-75
2022/01/16 09:40:13;;;;;;;5.82;4.70;;;;;;;18.42;38.20;102003.75;5013449;28;20065;-75
2022/01/16 09:42:41;;;;;;;6.20;5.35;;;;;;;18.42;37.98;102002.88;5026991;28;20041;-75
2022/01/16 09:45:11;;;;;;;6.72;5.88;;;;;;;18.42;37.84;102010.94;5032142;28;20044;-75
2022/01/16 09:47:43;;;;;;;6.10;5.20;;;;;;;18.42;38.51;102008.25;5031573;28;20049;-76
2022/01/16 09:50:14;;;;;;;7.25;5.72;;;;;;;18.40;39.40;101999.47;5032405;28;20049;-77
2022/01/16 09:52:43;;;;;;;7.10;4.97;;;;;;;18.42;38.91;101994.84;5032472;28;20041;-75
2022/01/16 09:55:12;;;;;;;10.07;5.93;;;;;;;18.41;38.82;101993.97;5031854;28;20049;-75
2022/01/16 09:57:40;;;;;;;10.68;5.38;;;;;;;18.41;38.61;101993.97;5032539;28;20045;-76
2022/01/16 10:00:11;;;;;;;8.50;5.55;;;;;;;18.40;38.46;101994.94;5032813;28;20049;-76
2022/01/16 10:02:45;;;;;;;7.95;5.70;;;;;;;18.41;38.12;101996.66;5039270;28;20060;-74
2022/01/16 10:05:30;;;;;;;8.13;6.38;;;;;;;18.41;37.90;101991.31;5032438;28;20056;-75
2022/01/16 10:08:00;;;;;;;8.00;7.13;;;;;;;18.40;37.72;101986.91;5032441;28;20053;-75
2022/01/16 10:10:31;;;;;;;8.77;7.88;;;;;;;18.41;37.53;101972.53;5033021;28;20049;-75
2022/01/16 10:13:07;;;;;;;9.05;7.68;;;;;;;18.41;37.53;101979.72;5032163;28;20049;-76
2022/01/16 10:15:35;;;;;;;14.02;11.30;;;;;;;18.39;36.87;101968.22;5032773;28;20052;-76
2022/01/16 10:18:06;;;;;;;16.15;14.55;;;;;;;18.36;36.38;101966.63;5029614;28;20057;-76
2022/01/16 10:20:42;;;;;;;17.95;14.73;;;;;;;18.34;35.99;101962.28;5032431;28;20045;-76
2022/01/16 10:23:18;;;;;;;20.02;17.92;;;;;;;18.32;35.34;101958.88;5032565;28;20045;-76
2022/01/16 10:25:48;;;;;;;15.48;13.88;;;;;;;18.29;36.33;101950.03;5027468;28;20049;-76
2022/01/16 10:28:18;;;;;;;15.63;12.95;;;;;;;18.31;36.85;101957.13;5011136;28;20054;-78
2022/01/16 10:30:50;;;;;;;14.38;12.68;;;;;;;18.32;36.82;101942.78;5011853;28;20057;-76
2022/01/16 10:33:20;;;;;;;12.93;11.52;;;;;;;18.31;36.93;101936.56;5013935;28;20046;-77
2022/01/16 10:35:50;;;;;;;14.40;12.45;;;;;;;18.32;36.86;101934.75;4998330;28;20057;-75
2022/01/16 10:38:21;;;;;;;14.57;10.95;;;;;;;18.32;37.07;101932.91;5014771;28;20069;-76
2022/01/16 10:40:52;;;;;;;11.88;10.75;;;;;;;18.33;37.23;101923.06;5015819;28;20053;-78
2022/01/16 10:43:35;;;;;;;10.80;9.80;;;;;;;18.35;37.25;101923.78;5027192;28;20033;-76
2022/01/16 10:46:03;;;;;;;12.40;9.50;;;;;;;18.36;37.24;101928.22;5035459;28;20418;-75
2022/01/16 10:49:10;;;;;;;10.77;9.55;;;;;;;18.36;37.29;101912.13;5035388;28;20052;-76
2022/01/16 10:51:38;;;;;;;11.32;10.20;;;;;;;18.36;37.37;101904.09;5035435;28;20148;-76
2022/01/16 10:54:28;;;;;;;11.88;8.82;;;;;;;18.38;37.58;101902.16;5035813;28;20045;-76
2022/01/16 10:56:56;;;;;;;12.00;8.60;;;;;;;18.38;37.65;101902.16;5035209;28;20056;-76
2022/01/16 10:59:24;;;;;;;10.63;8.40;;;;;;;18.38;37.78;101905.69;5034978;28;20041;-76
2022/01/16 11:02:08;;;;;;;10.50;8.40;;;;;;;18.37;37.80;101897.75;5035054;28;20068;-77
2022/01/16 11:04:35;;;;;;;10.07;8.00;;;;;;;18.38;38.06;101903.00;5034408;28;20397;-76
2022/01/16 11:07:04;;;;;;;10.05;8.35;;;;;;;18.39;37.99;101903.88;5034928;28;20045;-76
2022/01/16 11:09:32;;;;;;;9.55;8.48;;;;;;;18.39;38.07;101895.81;5021809;28;20046;-75
2022/01/16 11:12:00;;;;;;;9.00;7.80;;;;;;;18.42;38.25;101896.50;5015808;28;20054;-76
2022/01/16 11:14:29;;;;;;;11.95;8.88;;;;;;;18.42;38.35;101882.22;5015253;28;20038;-76
2022/01/16 11:16:57;;;;;;;9.05;7.80;;;;;;;18.42;38.70;101884.91;5015214;28;20054;-76
2022/01/16 11:19:26;;;;;;;9.77;7.28;;;;;;;18.40;38.63;101882.34;5014878;28;20385;-75
2022/01/16 11:22:03;;;;;;;10.48;7.57;;;;;;;18.40;38.78;101893.06;5013911;28;20042;-76
2022/01/16 11:24:46;;;;;;;8.23;7.38;;;;;;;18.40;38.79;101897.56;5014540;28;20042;-75
2022/01/16 11:27:17;;;;;;;9.52;8.15;;;;;;;18.38;38.67;101894.97;5015206;28;20053;-75
2022/01/16 11:29:44;;;;;;;8.60;7.70;;;;;;;18.39;38.64;101895.81;5015000;28;20489;-75
2022/01/16 11:32:12;;;;;;;8.48;6.82;;;;;;;18.39;38.59;101894.03;5014735;28;20057;-75
2022/01/16 11:34:40;;;;;;;8.30;7.07;;;;;;;18.39;38.70;101890.47;5014504;28;20057;-75
2022/01/16 11:37:08;;;;;;;9.80;8.25;;;;;;;18.38;38.53;101880.72;5014415;28;20519;-75
2022/01/16 11:39:36;;;;;;;10.65;8.63;;;;;;;18.37;38.43;101879.84;5015170;28;20056;-75
2022/01/16 11:42:10;;;;;;;10.00;8.40;;;;;;;18.38;38.60;101873.53;5014741;28;20046;-75
2022/01/16 11:44:51;;;;;;;9.32;7.90;;;;;;;18.38;38.41;101875.34;5028405;28;20378;-75
2022/01/16 11:47:18;;;;;;;9.20;8.00;;;;;;;18.37;38.37;101874.50;5034144;28;20052;-75
2022/01/16 11:49:46;;;;;;;9.50;7.55;;;;;;;18.36;38.26;101867.41;5034440;28;20055;-75
2022/01/16 11:52:16;;;;;;;7.93;6.88;;;;;;;18.37;38.16;101876.31;5034772;28;20049;-76
2022/01/16 11:54:50;;;;;;;9.95;7.60;;;;;;;18.37;38.37;101870.97;5034104;28;20424;-76
2022/01/16 11:57:26;;;;;;;7.95;7.15;;;;;;;18.36;38.42;101872.78;5034156;28;20052;-75
2022/01/16 12:00:13;;;;;;;8.57;7.68;;;;;;;18.36;38.43;101869.25;5033968;28;20144;-76
2022/01/16 12:02:45;;;;;;;8.82;7.00;;;;;;;18.36;38.40;101870.09;5027679;28;20049;-75
2022/01/16 12:05:24;;;;;;;8.05;7.25;;;;;;;18.37;38.38;101865.59;5013286;28;20053;-75
2022/01/16 12:07:55;;;;;;;9.23;7.53;;;;;;;18.36;38.40;101870.09;5012577;28;20057;-75
2022/01/16 12:10:41;;;;;;;7.78;6.80;;;;;;;18.36;38.28;101861.19;5013412;28;20399;-75
2022/01/16 12:13:42;;;;;;;8.27;7.05;;;;;;;18.35;38.40;101865.72;5014459;28;20058;-75
2022/01/16 12:16:42;;;;;;;7.82;7.03;;;;;;;18.35;38.28;101864.81;5012704;28;20057;-75
2022/01/16 12:19:32;;;;;;;10.63;7.68;;;;;;;18.35;38.27;101860.34;5014249;28;20050;-75
2022/01/16 12:22:00;;;;;;;7.47;6.78;;;;;;;18.36;38.28;101861.19;5014331;28;20049;-75